Terminal Aerodrome Forecast
Issued by NWS

Home | Current Version | Previous Version | Text Only | Print | Product List | Glossary On
Versions: 1 2 3 4 5 6 7 8 9 10 11 12 13 14 15 16 17 18 19 20 21 22 23 24 25 26 27 28 29 30 31 32 33 34 35 36 37
000
FTUS45 KGJT 231127
TAFVEL
TAF
KVEL 231127Z 2312/2412 28005KT P6SM SCT110
      TEMPO 2312/2315 BKN110
     FM231500 VRB03KT P6SM SCT110
     FM231900 17005KT P6SM SCT110
     FM240200 28004KT P6SM FEW110 SCT150=

USA.gov is the U.S. government's official web portal to all federal, state and local government web resources and services.